sensor_id;sensor_type;location;lat;lon;timestamp;pressure;altitude;pressure_sealevel;temperature;humidity
24858;BME280;12935;50.782;6.074;2023-05-11T00:02:08;99330.97;;;11.80;100.00
24858;BME280;12935;50.782;6.074;2023-05-11T00:04:33;99328.56;;;11.86;100.00
24858;BME280;12935;50.782;6.074;2023-05-11T00:06:59;99338.72;;;11.85;100.00
24858;BME280;12935;50.782;6.074;2023-05-11T00:09:24;99326.22;;;11.84;100.00
24858;BME280;12935;50.782;6.074;2023-05-11T00:11:51;99334.78;;;11.90;100.00
24858;BME280;12935;50.782;6.074;2023-05-11T00:14:16;99328.56;;;11.86;100.00
24858;BME280;12935;50.782;6.074;2023-05-11T00:16:42;99321.91;;;11.87;100.00
24858;BME280;12935;50.782;6.074;2023-05-11T00:19:07;99320.84;;;11.77;100.00
24858;BME280;12935;50.782;6.074;2023-05-11T00:21:32;99320.75;;;11.84;100.00
24858;BME280;12935;50.782;6.074;2023-05-11T00:23:57;99324.72;;;11.80;100.00
24858;BME280;12935;50.782;6.074;2023-05-11T00:26:23;99318.50;;;11.72;100.00
24858;BME280;12935;50.782;6.074;2023-05-11T00:28:48;99326.34;;;11.67;100.00
24858;BME280;12935;50.782;6.074;2023-05-11T00:31:13;99321.22;;;11.72;100.00
24858;BME280;12935;50.782;6.074;2023-05-11T00:33:38;99320.44;;;11.79;100.00
24858;BME280;12935;50.782;6.074;2023-05-11T00:36:04;99328.56;;;11.86;100.00
24858;BME280;12935;50.782;6.074;2023-05-11T00:38:31;99326.72;;;11.76;100.00
24858;BME280;12935;50.782;6.074;2023-05-11T00:40:56;99323.97;;;11.76;100.00
24858;BME280;12935;50.782;6.074;2023-05-11T00:43:22;99327.13;;;11.71;100.00
24858;BME280;12935;50.782;6.074;2023-05-11T00:45:47;99324.53;;;11.53;100.00
24858;BME280;12935;50.782;6.074;2023-05-11T00:48:14;99329.56;;;11.58;100.00
24858;BME280;12935;50.782;6.074;2023-05-11T00:50:40;99329.56;;;11.58;100.00
24858;BME280;12935;50.782;6.074;2023-05-11T00:53:06;99327.63;;;11.58;100.00
24858;BME280;12935;50.782;6.074;2023-05-11T00:55:32;99324.97;;;11.48;100.00
24858;BME280;12935;50.782;6.074;2023-05-11T00:57:57;99326.88;;;11.54;100.00
24858;BME280;12935;50.782;6.074;2023-05-11T01:00:23;99330.81;;;11.50;100.00
24858;BME280;12935;50.782;6.074;2023-05-11T01:02:49;99313.22;;;11.51;100.00
24858;BME280;12935;50.782;6.074;2023-05-11T01:05:15;99326.41;;;11.63;100.00
24858;BME280;12935;50.782;6.074;2023-05-11T01:07:57;99335.16;;;11.47;100.00
24858;BME280;12935;50.782;6.074;2023-05-11T01:10:32;99334.28;;;11.54;100.00
24858;BME280;12935;50.782;6.074;2023-05-11T01:15:52;99332.94;;;11.32;100.00
24858;BME280;12935;50.782;6.074;2023-05-11T01:18:33;99340.03;;;11.18;100.00
24858;BME280;12935;50.782;6.074;2023-05-11T01:21:00;99336.19;;;11.12;100.00
24858;BME280;12935;50.782;6.074;2023-05-11T01:31:16;99330.13;;;11.35;100.00
24858;BME280;12935;50.782;6.074;2023-05-11T01:33:47;99332.97;;;11.24;100.00
24858;BME280;12935;50.782;6.074;2023-05-11T01:36:14;99331.00;;;11.25;100.00
24858;BME280;12935;50.782;6.074;2023-05-11T01:38:45;99335.22;;;11.37;100.00
24858;BME280;12935;50.782;6.074;2023-05-11T01:41:17;99326.22;;;11.40;100.00
24858;BME280;12935;50.782;6.074;2023-05-11T01:43:46;99330.09;;;11.42;100.00
24858;BME280;12935;50.782;6.074;2023-05-11T01:46:13;99329.75;;;11.37;100.00
24858;BME280;12935;50.782;6.074;2023-05-11T01:48:43;99329.88;;;11.19;100.00
24858;BME280;12935;50.782;6.074;2023-05-11T01:51:11;99329.84;;;11.22;100.00
24858;BME280;12935;50.782;6.074;2023-05-11T01:53:38;99331.38;;;11.27;100.00
24858;BME280;12935;50.782;6.074;2023-05-11T01:56:05;99329.53;;;11.17;100.00
24858;BME280;12935;50.782;6.074;2023-05-11T01:58:33;99329.97;;;11.05;100.00
24858;BME280;12935;50.782;6.074;2023-05-11T02:01:01;99330.69;;;11.16;100.00
24858;BME280;12935;50.782;6.074;2023-05-11T02:03:28;99333.78;;;11.18;100.00
24858;BME280;12935;50.782;6.074;2023-05-11T02:05:56;99329.06;;;11.25;100.00
24858;BME280;12935;50.782;6.074;2023-05-11T02:08:23;99337.63;;;11.31;100.00
24858;BME280;12935;50.782;6.074;2023-05-11T02:10:50;99340.88;;;11.12;100.00
24858;BME280;12935;50.782;6.074;2023-05-11T02:13:16;99347.47;;;11.18;100.00
24858;BME280;12935;50.782;6.074;2023-05-11T02:15:44;99342.41;;;11.16;100.00
24858;BME280;12935;50.782;6.074;2023-05-11T02:18:13;99335.06;;;11.03;100.00
24858;BME280;12935;50.782;6.074;2023-05-11T02:20:41;99337.47;;;10.94;100.00
24858;BME280;12935;50.782;6.074;2023-05-11T02:23:07;99342.13;;;11.00;100.00
24858;BME280;12935;50.782;6.074;2023-05-11T02:25:35;99332.75;;;11.01;100.00
24858;BME280;12935;50.782;6.074;2023-05-11T02:28:00;99340.09;;;11.11;100.00
24858;BME280;12935;50.782;6.074;2023-05-11T02:30:26;99344.78;;;11.11;100.00
24858;BME280;12935;50.782;6.074;2023-05-11T02:32:54;99341.97;;;11.21;100.00
24858;BME280;12935;50.782;6.074;2023-05-11T02:35:32;99341.25;;;11.14;100.00
24858;BME280;12935;50.782;6.074;2023-05-11T02:38:01;99341.63;;;11.16;100.00
24858;BME280;12935;50.782;6.074;2023-05-11T02:40:32;99341.19;;;11.21;100.00
24858;BME280;12935;50.782;6.074;2023-05-11T02:43:06;99337.25;;;11.25;100.00
24858;BME280;12935;50.782;6.074;2023-05-11T02:45:33;99331.00;;;11.29;100.00
24858;BME280;12935;50.782;6.074;2023-05-11T02:48:03;99323.16;;;11.31;100.00
24858;BME280;12935;50.782;6.074;2023-05-11T02:50:31;99327.13;;;11.19;100.00
24858;BME280;12935;50.782;6.074;2023-05-11T02:53:02;99329.09;;;11.18;100.00
24858;BME280;12935;50.782;6.074;2023-05-11T02:55:29;99333.75;;;11.21;100.00
24858;BME280;12935;50.782;6.074;2023-05-11T02:57:55;99331.81;;;11.22;100.00
24858;BME280;12935;50.782;6.074;2023-05-11T03:00:20;99329.44;;;11.24;100.00
24858;BME280;12935;50.782;6.074;2023-05-11T03:02:46;99323.94;;;11.31;100.00
24858;BME280;12935;50.782;6.074;2023-05-11T03:05:11;99319.25;;;11.32;100.00
24858;BME280;12935;50.782;6.074;2023-05-11T03:07:36;99327.00;;;11.37;100.00
24858;BME280;12935;50.782;6.074;2023-05-11T03:10:02;99328.53;;;11.41;100.00
24858;BME280;12935;50.782;6.074;2023-05-11T03:12:29;99329.34;;;11.38;100.00
24858;BME280;12935;50.782;6.074;2023-05-11T03:15:01;99325.06;;;11.37;100.00
24858;BME280;12935;50.782;6.074;2023-05-11T03:17:28;99323.53;;;11.33;100.00
24858;BME280;12935;50.782;6.074;2023-05-11T03:19:55;99321.16;;;11.35;100.00
24858;BME280;12935;50.782;6.074;2023-05-11T03:22:22;99323.81;;;11.45;100.00
24858;BME280;12935;50.782;6.074;2023-05-11T03:24:48;99320.28;;;11.48;100.00
24858;BME280;12935;50.782;6.074;2023-05-11T03:27:15;99324.75;;;11.24;100.00
24858;BME280;12935;50.782;6.074;2023-05-11T03:29:42;99320.44;;;11.27;100.00
24858;BME280;12935;50.782;6.074;2023-05-11T03:32:09;99324.34;;;11.26;100.00
24858;BME280;12935;50.782;6.074;2023-05-11T03:34:35;99320.47;;;11.23;100.00
24858;BME280;12935;50.782;6.074;2023-05-11T03:37:01;99325.50;;;11.32;100.00
24858;BME280;12935;50.782;6.074;2023-05-11T03:39:28;99324.63;;;11.42;100.00
24858;BME280;12935;50.782;6.074;2023-05-11T03:41:55;99314.44;;;11.46;100.00
24858;BME280;12935;50.782;6.074;2023-05-11T03:44:23;99314.00;;;11.51;100.00
24858;BME280;12935;50.782;6.074;2023-05-11T03:46:50;99305.44;;;11.46;100.00
24858;BME280;12935;50.782;6.074;2023-05-11T03:49:17;99316.81;;;11.41;100.00
24858;BME280;12935;50.782;6.074;2023-05-11T03:51:43;99310.19;;;11.38;100.00
24858;BME280;12935;50.782;6.074;2023-05-11T03:54:09;99307.97;;;11.22;100.00
24858;BME280;12935;50.782;6.074;2023-05-11T03:56:38;99311.50;;;11.19;100.00
24858;BME280;12935;50.782;6.074;2023-05-11T03:59:04;99313.78;;;11.32;100.00
24858;BME280;12935;50.782;6.074;2023-05-11T04:01:30;99314.19;;;11.30;100.00
24858;BME280;12935;50.782;6.074;2023-05-11T04:03:56;99319.69;;;11.23;100.00
24858;BME280;12935;50.782;6.074;2023-05-11T04:06:22;99314.59;;;11.29;100.00
24858;BME280;12935;50.782;6.074;2023-05-11T04:08:47;99319.31;;;11.21;100.00
24858;BME280;12935;50.782;6.074;2023-05-11T04:11:12;99315.38;;;11.25;100.00
24858;BME280;12935;50.782;6.074;2023-05-11T04:13:38;99322.03;;;11.24;100.00
24858;BME280;12935;50.782;6.074;2023-05-11T04:16:04;99323.66;;;11.15;100.00
24858;BME280;12935;50.782;6.074;2023-05-11T04:18:29;99322.50;;;11.12;100.00
24858;BME280;12935;50.782;6.074;2023-05-11T04:20:55;99323.78;;;11.01;100.00
24858;BME280;12935;50.782;6.074;2023-05-11T04:23:20;99317.84;;;11.09;100.00
24858;BME280;12935;50.782;6.074;2023-05-11T04:25:45;99315.75;;;11.28;100.00
24858;BME280;12935;50.782;6.074;2023-05-11T04:28:11;99319.66;;;11.30;100.00
24858;BME280;12935;50.782;6.074;2023-05-11T04:30:36;99320.47;;;11.23;100.00
24858;BME280;12935;50.782;6.074;2023-05-11T04:33:02;99332.19;;;11.24;100.00
24858;BME280;12935;50.782;6.074;2023-05-11T04:35:27;99320.50;;;11.20;100.00
24858;BME280;12935;50.782;6.074;2023-05-11T04:37:53;99330.75;;;11.05;100.00
24858;BME280;12935;50.782;6.074;2023-05-11T04:40:18;99319.28;;;11.24;100.00
24858;BME280;12935;50.782;6.074;2023-05-11T04:42:43;99326.72;;;11.24;100.00
24858;BME280;12935;50.782;6.074;2023-05-11T04:45:09;99333.03;;;11.17;100.00
24858;BME280;12935;50.782;6.074;2023-05-11T04:47:35;99332.28;;;11.13;100.00
24858;BME280;12935;50.782;6.074;2023-05-11T04:50:00;99337.34;;;11.15;100.00
24858;BME280;12935;50.782;6.074;2023-05-11T04:52:25;99334.25;;;11.06;100.00
24858;BME280;12935;50.782;6.074;2023-05-11T04:54:50;99335.47;;;11.01;100.00
24858;BME280;12935;50.782;6.074;2023-05-11T04:57:16;99336.28;;;10.98;100.00
24858;BME280;12935;50.782;6.074;2023-05-11T04:59:41;99334.31;;;10.99;100.00
24858;BME280;12935;50.782;6.074;2023-05-11T05:02:06;99340.84;;;11.15;100.00
24858;BME280;12935;50.782;6.074;2023-05-11T05:04:32;99334.59;;;11.15;100.00
24858;BME280;12935;50.782;6.074;2023-05-11T05:06:57;99349.38;;;11.24;100.00
24858;BME280;12935;50.782;6.074;2023-05-11T05:09:22;99344.66;;;11.32;100.00
24858;BME280;12935;50.782;6.074;2023-05-11T05:11:48;99353.53;;;11.47;100.00
24858;BME280;12935;50.782;6.074;2023-05-11T05:14:13;99355.50;;;11.43;100.00
24858;BME280;12935;50.782;6.074;2023-05-11T05:16:38;99352.09;;;11.28;100.00
24858;BME280;12935;50.782;6.074;2023-05-11T05:19:04;99359.81;;;11.40;100.00
24858;BME280;12935;50.782;6.074;2023-05-11T05:21:29;99360.88;;;11.53;100.00
24858;BME280;12935;50.782;6.074;2023-05-11T05:23:54;99359.41;;;11.45;100.00
24858;BME280;12935;50.782;6.074;2023-05-11T05:26:19;99356.13;;;11.61;100.00
24858;BME280;12935;50.782;6.074;2023-05-11T05:28:45;99368.94;;;11.75;100.00
24858;BME280;12935;50.782;6.074;2023-05-11T05:31:11;99365.72;;;11.87;100.00
24858;BME280;12935;50.782;6.074;2023-05-11T05:33:36;99369.97;;;11.91;100.00
24858;BME280;12935;50.782;6.074;2023-05-11T05:36:01;99366.91;;;11.82;100.00
24858;BME280;12935;50.782;6.074;2023-05-11T05:38:27;99380.94;;;11.91;100.00
24858;BME280;12935;50.782;6.074;2023-05-11T05:40:52;99374.31;;;11.85;100.00
24858;BME280;12935;50.782;6.074;2023-05-11T05:43:17;99379.09;;;11.78;100.00
24858;BME280;12935;50.782;6.074;2023-05-11T05:45:43;99384.41;;;11.47;100.00
24858;BME280;12935;50.782;6.074;2023-05-11T05:48:08;99387.81;;;11.62;100.00
24858;BME280;12935;50.782;6.074;2023-05-11T05:50:34;99382.22;;;11.73;100.00
24858;BME280;12935;50.782;6.074;2023-05-11T05:52:59;99387.34;;;11.67;100.00
24858;BME280;12935;50.782;6.074;2023-05-11T05:55:24;99396.00;;;11.62;100.00
24858;BME280;12935;50.782;6.074;2023-05-11T05:57:50;99395.63;;;11.60;100.00
24858;BME280;12935;50.782;6.074;2023-05-11T06:00:15;99394.06;;;11.63;100.00
24858;BME280;12935;50.782;6.074;2023-05-11T06:02:41;99404.94;;;11.66;100.00
24858;BME280;12935;50.782;6.074;2023-05-11T06:05:07;99391.59;;;11.79;100.00
24858;BME280;12935;50.782;6.074;2023-05-11T06:07:32;99398.97;;;11.85;100.00
24858;BME280;12935;50.782;6.074;2023-05-11T06:09:58;99402.19;;;11.77;100.00
24858;BME280;12935;50.782;6.074;2023-05-11T06:12:23;99402.97;;;11.77;100.00
24858;BME280;12935;50.782;6.074;2023-05-11T06:14:48;99405.78;;;11.63;100.00
24858;BME280;12935;50.782;6.074;2023-05-11T06:17:14;99407.38;;;11.57;100.00
24858;BME280;12935;50.782;6.074;2023-05-11T06:19:39;99414.41;;;11.58;100.00
24858;BME280;12935;50.782;6.074;2023-05-11T06:22:05;99407.09;;;11.44;100.00
24858;BME280;12935;50.782;6.074;2023-05-11T06:24:30;99406.31;;;11.40;100.00
24858;BME280;12935;50.782;6.074;2023-05-11T06:26:55;99398.47;;;11.46;100.00
24858;BME280;12935;50.782;6.074;2023-05-11T06:29:21;99417.13;;;11.62;100.00
24858;BME280;12935;50.782;6.074;2023-05-11T06:31:47;99412.06;;;11.60;100.00
24858;BME280;12935;50.782;6.074;2023-05-11T06:34:18;99413.50;;;11.79;100.00
24858;BME280;12935;50.782;6.074;2023-05-11T06:36:44;99411.47;;;11.86;100.00
24858;BME280;12935;50.782;6.074;2023-05-11T06:39:09;99412.31;;;11.80;100.00
24858;BME280;12935;50.782;6.074;2023-05-11T06:41:34;99405.31;;;11.72;100.00
24858;BME280;12935;50.782;6.074;2023-05-11T06:44:00;99412.47;;;11.55;100.00
24858;BME280;12935;50.782;6.074;2023-05-11T06:46:25;99414.44;;;11.51;100.00
24858;BME280;12935;50.782;6.074;2023-05-11T06:48:50;99412.88;;;11.53;100.00
24858;BME280;12935;50.782;6.074;2023-05-11T06:51:16;99409.28;;;11.64;100.00
24858;BME280;12935;50.782;6.074;2023-05-11T06:53:41;99412.88;;;11.53;100.00
24858;BME280;12935;50.782;6.074;2023-05-11T06:56:06;99411.41;;;11.38;100.00
24858;BME280;12935;50.782;6.074;2023-05-11T06:58:32;99407.88;;;11.45;100.00
24858;BME280;12935;50.782;6.074;2023-05-11T07:00:57;99414.78;;;11.64;100.00
24858;BME280;12935;50.782;6.074;2023-05-11T07:03:23;99414.38;;;11.62;100.00
24858;BME280;12935;50.782;6.074;2023-05-11T07:05:48;99412.44;;;11.58;100.00
24858;BME280;12935;50.782;6.074;2023-05-11T07:08:13;99418.69;;;11.63;100.00
24858;BME280;12935;50.782;6.074;2023-05-11T07:10:39;99420.56;;;11.76;100.00
24858;BME280;12935;50.782;6.074;2023-05-11T07:13:05;99419.38;;;11.74;100.00
24858;BME280;12935;50.782;6.074;2023-05-11T07:15:31;99424.53;;;11.65;100.00
24858;BME280;12935;50.782;6.074;2023-05-11T07:17:57;99419.47;;;11.63;100.00
24858;BME280;12935;50.782;6.074;2023-05-11T07:20:23;99419.81;;;11.65;100.00
24858;BME280;12935;50.782;6.074;2023-05-11T07:22:48;99405.03;;;11.59;100.00
24858;BME280;12935;50.782;6.074;2023-05-11T07:25:13;99421.72;;;11.75;100.00
24858;BME280;12935;50.782;6.074;2023-05-11T07:27:39;99423.31;;;11.69;100.00
24858;BME280;12935;50.782;6.074;2023-05-11T07:30:04;99418.16;;;11.82;100.00
24858;BME280;12935;50.782;6.074;2023-05-11T07:32:30;99425.22;;;11.79;100.00
24858;BME280;12935;50.782;6.074;2023-05-11T07:34:56;99422.41;;;11.90;100.00
24858;BME280;12935;50.782;6.074;2023-05-11T07:37:22;99423.16;;;11.94;100.00
24858;BME280;12935;50.782;6.074;2023-05-11T07:39:47;99422.00;;;11.91;100.00
24858;BME280;12935;50.782;6.074;2023-05-11T07:42:12;99432.06;;;12.05;100.00
24858;BME280;12935;50.782;6.074;2023-05-11T07:44:37;99430.50;;;12.01;100.00
24858;BME280;12935;50.782;6.074;2023-05-11T07:47:03;99424.66;;;11.99;100.00
24858;BME280;12935;50.782;6.074;2023-05-11T07:49:28;99423.41;;;12.10;100.00
24858;BME280;12935;50.782;6.074;2023-05-11T07:51:53;99435.00;;;12.25;100.00
24858;BME280;12935;50.782;6.074;2023-05-11T07:54:18;99431.44;;;12.28;100.00
24858;BME280;12935;50.782;6.074;2023-05-11T07:56:44;99433.34;;;12.35;100.00
24858;BME280;12935;50.782;6.074;2023-05-11T07:59:09;99433.75;;;12.67;100.00
24858;BME280;12935;50.782;6.074;2023-05-11T08:01:35;99427.94;;;12.95;100.00
24858;BME280;12935;50.782;6.074;2023-05-11T08:04:00;99433.19;;;13.17;100.00
24858;BME280;12935;50.782;6.074;2023-05-11T08:06:26;99431.91;;;12.91;100.00
24858;BME280;12935;50.782;6.074;2023-05-11T08:08:51;99428.56;;;12.76;100.00
24858;BME280;12935;50.782;6.074;2023-05-11T08:11:16;99436.13;;;12.65;100.00
24858;BME280;12935;50.782;6.074;2023-05-11T08:13:42;99426.97;;;12.79;100.00
24858;BME280;12935;50.782;6.074;2023-05-11T08:16:07;99427.38;;;13.08;100.00
24858;BME280;12935;50.782;6.074;2023-05-11T08:18:32;99430.22;;;13.00;100.00
24858;BME280;12935;50.782;6.074;2023-05-11T08:20:58;99430.13;;;12.77;100.00
24858;BME280;12935;50.782;6.074;2023-05-11T08:23:23;99430.00;;;12.88;100.00
24858;BME280;12935;50.782;6.074;2023-05-11T08:25:52;99437.09;;;12.85;100.00
24858;BME280;12935;50.782;6.074;2023-05-11T08:28:18;99435.97;;;12.79;100.00
24858;BME280;12935;50.782;6.074;2023-05-11T08:30:44;99433.00;;;12.97;100.00
24858;BME280;12935;50.782;6.074;2023-05-11T08:33:09;99442.19;;;13.14;100.00
24858;BME280;12935;50.782;6.074;2023-05-11T08:35:34;99441.47;;;13.10;100.00
24858;BME280;12935;50.782;6.074;2023-05-11T08:38:00;99448.50;;;13.11;100.00
24858;BME280;12935;50.782;6.074;2023-05-11T08:40:26;99447.53;;;12.94;100.00
24858;BME280;12935;50.782;6.074;2023-05-11T08:42:54;99449.69;;;13.10;100.00
24858;BME280;12935;50.782;6.074;2023-05-11T08:45:20;99441.22;;;13.31;100.00
24858;BME280;12935;50.782;6.074;2023-05-11T08:47:46;99454.25;;;13.23;100.00
24858;BME280;12935;50.782;6.074;2023-05-11T08:50:12;99460.06;;;13.29;100.00
24858;BME280;12935;50.782;6.074;2023-05-11T08:52:37;99453.72;;;13.62;100.00
24858;BME280;12935;50.782;6.074;2023-05-11T08:55:03;99453.19;;;13.44;100.00
24858;BME280;12935;50.782;6.074;2023-05-11T08:57:30;99462.88;;;13.52;100.00
24858;BME280;12935;50.782;6.074;2023-05-11T08:59:57;99465.69;;;13.49;100.00
24858;BME280;12935;50.782;6.074;2023-05-11T09:02:22;99460.16;;;13.52;100.00
24858;BME280;12935;50.782;6.074;2023-05-11T09:04:49;99469.56;;;13.51;100.00
24858;BME280;12935;50.782;6.074;2023-05-11T09:07:15;99466.19;;;13.67;100.00
24858;BME280;12935;50.782;6.074;2023-05-11T09:09:41;99460.53;;;13.78;100.00
24858;BME280;12935;50.782;6.074;2023-05-11T09:12:08;99458.63;;;13.75;100.00
24858;BME280;12935;50.782;6.074;2023-05-11T09:14:33;99457.25;;;13.86;100.00
24858;BME280;12935;50.782;6.074;2023-05-11T09:16:59;99463.25;;;13.81;100.00
24858;BME280;12935;50.782;6.074;2023-05-11T09:19:24;99455.31;;;13.60;100.00
24858;BME280;12935;50.782;6.074;2023-05-11T09:21:51;99463.03;;;13.42;100.00
24858;BME280;12935;50.782;6.074;2023-05-11T09:24:18;99464.69;;;13.36;100.00
24858;BME280;12935;50.782;6.074;2023-05-11T09:26:44;99457.28;;;13.59;100.00
24858;BME280;12935;50.782;6.074;2023-05-11T09:29:09;99459.41;;;13.75;100.00
24858;BME280;12935;50.782;6.074;2023-05-11T09:31:42;99453.06;;;13.78;100.00
24858;BME280;12935;50.782;6.074;2023-05-11T09:34:21;99450.09;;;13.69;100.00
24858;BME280;12935;50.782;6.074;2023-05-11T09:36:52;99443.59;;;13.83;100.00
24858;BME280;12935;50.782;6.074;2023-05-11T09:39:30;99439.84;;;13.69;100.00
24858;BME280;12935;50.782;6.074;2023-05-11T09:42:15;99448.91;;;13.93;100.00
24858;BME280;12935;50.782;6.074;2023-05-11T09:44:42;99443.13;;;14.11;100.00
24858;BME280;12935;50.782;6.074;2023-05-11T09:47:15;99452.25;;;14.28;100.00
24858;BME280;12935;50.782;6.074;2023-05-11T09:49:42;99459.97;;;14.13;100.00
24858;BME280;12935;50.782;6.074;2023-05-11T09:52:12;99445.38;;;13.93;100.00
24858;BME280;12935;50.782;6.074;2023-05-11T09:54:45;99455.31;;;14.10;100.00
24858;BME280;12935;50.782;6.074;2023-05-11T09:59:47;99450.69;;;14.03;100.00
24858;BME280;12935;50.782;6.074;2023-05-11T10:02:22;99452.19;;;13.85;100.00
24858;BME280;12935;50.782;6.074;2023-05-11T10:04:49;99453.53;;;14.00;100.00
24858;BME280;12935;50.782;6.074;2023-05-11T10:07:31;99453.31;;;14.34;100.00
24858;BME280;12935;50.782;6.074;2023-05-11T10:09:58;99449.59;;;14.67;100.00
24858;BME280;12935;50.782;6.074;2023-05-11T10:12:25;99455.03;;;14.91;100.00
24858;BME280;12935;50.782;6.074;2023-05-11T10:14:54;99438.78;;;14.57;100.00
24858;BME280;12935;50.782;6.074;2023-05-11T10:17:20;99443.97;;;14.31;100.00
24858;BME280;12935;50.782;6.074;2023-05-11T10:19:49;99435.59;;;14.15;100.00
24858;BME280;12935;50.782;6.074;2023-05-11T10:22:15;99444.31;;;14.10;100.00
24858;BME280;12935;50.782;6.074;2023-05-11T10:24:43;99447.78;;;14.14;100.00
24858;BME280;12935;50.782;6.074;2023-05-11T10:27:10;99445.25;;;14.23;100.00
24858;BME280;12935;50.782;6.074;2023-05-11T10:29:36;99435.06;;;14.47;100.00
24858;BME280;12935;50.782;6.074;2023-05-11T10:32:02;99438.22;;;14.65;100.00
24858;BME280;12935;50.782;6.074;2023-05-11T10:34:28;99436.91;;;14.73;100.00
24858;BME280;12935;50.782;6.074;2023-05-11T10:36:56;99439.00;;;14.66;100.00
24858;BME280;12935;50.782;6.074;2023-05-11T10:39:24;99434.28;;;14.47;100.00
24858;BME280;12935;50.782;6.074;2023-05-11T10:45:03;99442.22;;;14.41;100.00
24858;BME280;12935;50.782;6.074;2023-05-11T10:50:47;99445.88;;;14.11;100.00
24858;BME280;12935;50.782;6.074;2023-05-11T10:59:08;99442.09;;;14.25;100.00
24858;BME280;12935;50.782;6.074;2023-05-11T11:01:38;99424.94;;;14.17;100.00
24858;BME280;12935;50.782;6.074;2023-05-11T11:04:06;99438.00;;;14.13;100.00
24858;BME280;12935;50.782;6.074;2023-05-11T11:06:33;99442.56;;;14.20;100.00
24858;BME280;12935;50.782;6.074;2023-05-11T11:09:09;99432.19;;;14.31;100.00
24858;BME280;12935;50.782;6.074;2023-05-11T11:11:46;99440.06;;;14.29;100.00
24858;BME280;12935;50.782;6.074;2023-05-11T11:14:16;99437.31;;;14.52;100.00
24858;BME280;12935;50.782;6.074;2023-05-11T11:19:42;99435.84;;;14.67;100.00
24858;BME280;12935;50.782;6.074;2023-05-11T11:22:46;99445.69;;;14.22;100.00
24858;BME280;12935;50.782;6.074;2023-05-11T11:25:13;99437.91;;;13.93;100.00
24858;BME280;12935;50.782;6.074;2023-05-11T11:30:24;99432.19;;;13.84;100.00
24858;BME280;12935;50.782;6.074;2023-05-11T11:38:04;99439.78;;;14.47;100.00
24858;BME280;12935;50.782;6.074;2023-05-11T11:40:59;99438.09;;;14.72;100.00
24858;BME280;12935;50.782;6.074;2023-05-11T11:43:27;99434.22;;;14.90;100.00
24858;BME280;12935;50.782;6.074;2023-05-11T11:45:59;99433.16;;;14.84;100.00
24858;BME280;12935;50.782;6.074;2023-05-11T11:48:43;99436.47;;;14.75;100.00
24858;BME280;12935;50.782;6.074;2023-05-11T11:51:11;99432.66;;;14.89;100.00
24858;BME280;12935;50.782;6.074;2023-05-11T12:01:18;99427.38;;;14.35;100.00
24858;BME280;12935;50.782;6.074;2023-05-11T12:03:45;99423.75;;;14.42;100.00
24858;BME280;12935;50.782;6.074;2023-05-11T12:06:13;99434.97;;;14.51;100.00
24858;BME280;12935;50.782;6.074;2023-05-11T12:08:40;99434.84;;;14.58;100.00
24858;BME280;12935;50.782;6.074;2023-05-11T12:11:06;99424.47;;;14.65;100.00
24858;BME280;12935;50.782;6.074;2023-05-11T12:13:33;99427.03;;;14.76;100.00
24858;BME280;12935;50.782;6.074;2023-05-11T12:16:09;99422.16;;;14.84;100.00
24858;BME280;12935;50.782;6.074;2023-05-11T12:18:36;99422.84;;;14.68;100.00
24858;BME280;12935;50.782;6.074;2023-05-11T12:21:01;99418.34;;;14.58;100.00
24858;BME280;12935;50.782;6.074;2023-05-11T12:23:28;99408.75;;;14.46;100.00
24858;BME280;12935;50.782;6.074;2023-05-11T12:26:03;99416.44;;;14.55;100.00
24858;BME280;12935;50.782;6.074;2023-05-11T12:28:28;99420.09;;;14.68;100.00
24858;BME280;12935;50.782;6.074;2023-05-11T12:30:54;99419.19;;;14.74;100.00
24858;BME280;12935;50.782;6.074;2023-05-11T12:33:20;99414.47;;;14.95;100.00
24858;BME280;12935;50.782;6.074;2023-05-11T12:35:50;99419.16;;;15.14;100.00
24858;BME280;12935;50.782;6.074;2023-05-11T12:38:16;99410.03;;;15.17;100.00
24858;BME280;12935;50.782;6.074;2023-05-11T12:40:46;99411.44;;;15.25;100.00
24858;BME280;12935;50.782;6.074;2023-05-11T12:43:19;99416.72;;;15.36;100.00
24858;BME280;12935;50.782;6.074;2023-05-11T12:45:45;99403.97;;;15.26;100.00
24858;BME280;12935;50.782;6.074;2023-05-11T12:48:11;99409.13;;;15.24;100.00
24858;BME280;12935;50.782;6.074;2023-05-11T12:50:41;99406.34;;;15.07;100.00
24858;BME280;12935;50.782;6.074;2023-05-11T12:53:14;99414.84;;;15.13;100.00
24858;BME280;12935;50.782;6.074;2023-05-11T12:55:39;99403.22;;;15.41;100.00
24858;BME280;12935;50.782;6.074;2023-05-11T12:58:13;99389.19;;;15.52;100.00
24858;BME280;12935;50.782;6.074;2023-05-11T13:00:52;99398.34;;;15.65;100.00
24858;BME280;12935;50.782;6.074;2023-05-11T13:03:28;99399.56;;;15.81;100.00
24858;BME280;12935;50.782;6.074;2023-05-11T13:06:07;99399.75;;;15.90;100.00
24858;BME280;12935;50.782;6.074;2023-05-11T13:08:34;99391.56;;;15.70;100.00
24858;BME280;12935;50.782;6.074;2023-05-11T13:11:22;99396.63;;;15.55;100.00
24858;BME280;12935;50.782;6.074;2023-05-11T13:13:49;99390.03;;;15.33;100.00
24858;BME280;12935;50.782;6.074;2023-05-11T13:16:28;99388.81;;;15.18;100.00
24858;BME280;12935;50.782;6.074;2023-05-11T13:21:22;99389.81;;;15.07;100.00
24858;BME280;12935;50.782;6.074;2023-05-11T13:23:48;99390.31;;;15.02;100.00
24858;BME280;12935;50.782;6.074;2023-05-11T13:26:21;99384.50;;;15.17;100.00
24858;BME280;12935;50.782;6.074;2023-05-11T13:28:46;99387.19;;;15.20;100.00
24858;BME280;12935;50.782;6.074;2023-05-11T13:31:12;99395.19;;;15.31;100.00
24858;BME280;12935;50.782;6.074;2023-05-11T13:33:37;99386.75;;;15.22;100.00
24858;BME280;12935;50.782;6.074;2023-05-11T13:36:03;99386.44;;;15.36;100.00
24858;BME280;12935;50.782;6.074;2023-05-11T13:38:28;99391.69;;;15.47;100.00